Time;durP1;ratioP1;P1;durP2;ratioP2;P2;SDS_P1;SDS_P2;PMS_P1;PMS_P2;Temp;Humidity;BMP_temperature;BMP_pressure;BME280_temperature;BME280_humidity;BME280_pressure;Samples;Min_cycle;Max_cycle;Signal;HPM_P1;HPM_P2
2022/07/06 00:01:21;;;;;;;2.13;0.80;;;23.50;49.80;;;;;;5008629;28;20090;-62
2022/07/06 00:03:47;;;;;;;0.60;0.60;;;23.50;49.80;;;;;;5008741;28;20587;-62
2022/07/06 00:06:13;;;;;;;1.33;0.68;;;23.40;49.80;;;;;;5007663;28;20791;-62
2022/07/06 00:08:39;;;;;;;2.00;0.55;;;23.50;49.80;;;;;;5010028;28;20532;-61
2022/07/06 00:11:05;;;;;;;1.25;0.60;;;23.50;49.80;;;;;;4991876;28;20796;-62
2022/07/06 00:13:31;;;;;;;1.00;0.52;;;23.40;49.80;;;;;;5010865;28;20053;-61
2022/07/06 00:15:56;;;;;;;1.42;0.60;;;23.40;49.80;;;;;;5007890;28;20046;-62
2022/07/06 00:18:22;;;;;;;0.68;0.50;;;23.50;49.90;;;;;;5006171;28;20455;-61
2022/07/06 00:20:48;;;;;;;0.93;0.70;;;23.50;49.90;;;;;;5008873;28;20518;-62
2022/07/06 00:23:13;;;;;;;1.27;0.70;;;23.40;49.90;;;;;;5007289;28;20322;-62
2022/07/06 00:25:39;;;;;;;0.90;0.50;;;23.40;49.80;;;;;;5010225;28;20046;-64
2022/07/06 00:28:04;;;;;;;1.65;0.80;;;23.40;49.80;;;;;;5007477;28;20175;-62
2022/07/06 00:30:30;;;;;;;1.15;0.60;;;23.50;49.90;;;;;;5009687;28;20108;-63
2022/07/06 00:32:57;;;;;;;0.98;0.50;;;23.40;49.80;;;;;;5008169;28;20038;-62
2022/07/06 00:35:24;;;;;;;1.38;0.73;;;23.40;49.80;;;;;;5009817;28;20041;-61
2022/07/06 00:37:49;;;;;;;1.27;0.50;;;23.40;49.80;;;;;;5013340;28;20034;-61
2022/07/06 00:40:15;;;;;;;2.15;0.60;;;23.40;49.80;;;;;;5011119;28;20099;-62
2022/07/06 00:42:46;;;;;;;0.73;0.57;;;23.40;49.80;;;;;;5007682;28;20925;-61
2022/07/06 00:45:13;;;;;;;1.50;0.55;;;23.40;49.80;;;;;;5007884;28;20080;-62
2022/07/06 00:47:40;;;;;;;1.15;0.60;;;23.40;49.90;;;;;;5007687;28;20050;-63
2022/07/06 00:50:14;;;;;;;1.23;0.80;;;23.40;49.90;;;;;;5010397;28;20034;-62
2022/07/06 00:52:45;;;;;;;2.05;0.80;;;23.40;49.80;;;;;;5007444;28;20139;-62
2022/07/06 00:55:12;;;;;;;1.00;0.60;;;23.40;49.90;;;;;;5011900;28;20390;-61
2022/07/06 00:57:39;;;;;;;0.57;0.40;;;23.40;49.90;;;;;;5005611;28;20097;-62
2022/07/06 01:00:09;;;;;;;1.08;0.75;;;23.40;49.90;;;;;;5009498;28;20171;-63
2022/07/06 01:02:35;;;;;;;2.53;0.50;;;23.40;49.90;;;;;;5009191;28;20042;-61
2022/07/06 01:05:05;;;;;;;1.05;0.50;;;23.40;49.90;;;;;;5008643;28;20042;-62
2022/07/06 01:07:31;;;;;;;1.15;0.65;;;23.40;50.00;;;;;;5011463;28;20037;-61
2022/07/06 01:09:57;;;;;;;1.17;0.70;;;23.40;49.90;;;;;;5007736;28;21089;-62
2022/07/06 01:12:23;;;;;;;2.85;0.70;;;23.40;49.90;;;;;;5007951;28;20477;-62
2022/07/06 01:14:50;;;;;;;1.20;0.60;;;23.40;49.90;;;;;;5008314;28;20081;-64
2022/07/06 01:17:17;;;;;;;0.52;0.40;;;23.40;49.90;;;;;;5004738;28;20053;-61
2022/07/06 01:19:43;;;;;;;0.70;0.57;;;23.40;49.90;;;;;;5007391;28;20042;-64
2022/07/06 01:22:09;;;;;;;1.33;0.60;;;23.40;49.90;;;;;;5009397;28;20037;-62
2022/07/06 01:24:36;;;;;;;0.70;0.70;;;23.40;50.00;;;;;;5008460;28;20048;-62
2022/07/06 01:27:03;;;;;;;1.40;0.50;;;23.40;50.00;;;;;;5009251;28;20156;-62
2022/07/06 01:29:29;;;;;;;1.60;0.60;;;23.40;50.00;;;;;;5013712;28;20052;-61
2022/07/06 01:31:55;;;;;;;1.70;0.60;;;23.40;50.00;;;;;;5012632;28;20069;-62
2022/07/06 01:34:21;;;;;;;1.67;0.43;;;23.30;50.00;;;;;;5011253;28;20041;-61
2022/07/06 01:36:47;;;;;;;0.68;0.40;;;23.30;50.00;;;;;;5010899;28;20048;-64
2022/07/06 01:39:13;;;;;;;2.03;0.70;;;23.30;49.90;;;;;;5013184;28;20038;-62
2022/07/06 01:41:39;;;;;;;1.27;0.80;;;23.30;50.00;;;;;;5012621;28;20065;-62
2022/07/06 01:44:05;;;;;;;2.17;0.50;;;23.40;50.00;;;;;;5009616;28;20080;-62
2022/07/06 01:46:31;;;;;;;1.73;0.68;;;23.30;50.00;;;;;;5012096;28;20533;-62
2022/07/06 01:48:57;;;;;;;0.85;0.50;;;23.30;50.00;;;;;;5010609;28;20450;-61
2022/07/06 01:51:24;;;;;;;0.60;0.50;;;23.30;50.00;;;;;;5011602;28;20038;-60
2022/07/06 01:53:50;;;;;;;1.55;0.63;;;23.30;50.00;;;;;;5006984;28;20336;-64
2022/07/06 01:56:17;;;;;;;0.95;0.60;;;23.40;50.00;;;;;;5009477;28;20049;-62
2022/07/06 01:58:43;;;;;;;0.60;0.50;;;23.30;50.00;;;;;;5010189;28;20072;-61
2022/07/06 02:01:10;;;;;;;1.33;0.60;;;23.40;50.10;;;;;;5009218;28;20466;-62
2022/07/06 02:03:36;;;;;;;1.05;0.65;;;23.30;50.00;;;;;;5010726;28;20393;-65
2022/07/06 02:06:03;;;;;;;1.27;0.50;;;23.30;50.00;;;;;;5009916;28;20120;-62
2022/07/06 02:08:29;;;;;;;0.73;0.50;;;23.30;50.00;;;;;;5011268;28;20042;-60
2022/07/06 02:10:54;;;;;;;1.05;0.55;;;23.30;50.40;;;;;;5009508;28;20608;-62
2022/07/06 02:13:20;;;;;;;0.95;0.57;;;23.30;50.00;;;;;;5008346;28;20092;-62
2022/07/06 02:15:46;;;;;;;1.75;0.50;;;23.30;50.00;;;;;;5013429;28;20041;-61
2022/07/06 02:18:11;;;;;;;1.25;0.55;;;23.30;50.00;;;;;;5011479;28;20033;-61
2022/07/06 02:20:37;;;;;;;2.40;0.52;;;23.30;50.00;;;;;;5009244;28;20052;-61
2022/07/06 02:23:03;;;;;;;1.30;0.50;;;23.30;50.00;;;;;;5010568;28;20042;-62
2022/07/06 02:25:29;;;;;;;1.58;0.50;;;23.30;50.10;;;;;;5012589;28;20101;-62
2022/07/06 02:27:54;;;;;;;0.88;0.43;;;23.30;50.10;;;;;;5009387;28;20052;-61
2022/07/06 02:30:20;;;;;;;0.77;0.40;;;23.30;50.10;;;;;;5012071;28;20037;-62
2022/07/06 02:32:46;;;;;;;1.98;0.73;;;23.30;50.10;;;;;;5010215;28;20371;-62
2022/07/06 02:35:12;;;;;;;0.80;0.40;;;23.30;50.10;;;;;;5009563;28;20077;-64
2022/07/06 02:37:38;;;;;;;0.88;0.52;;;23.30;50.10;;;;;;5010052;28;20076;-61
2022/07/06 02:40:04;;;;;;;2.75;0.77;;;23.30;50.10;;;;;;5009728;28;20044;-62
2022/07/06 02:42:30;;;;;;;0.77;0.50;;;23.30;50.10;;;;;;5010154;28;20221;-63
2022/07/06 02:44:56;;;;;;;1.08;0.50;;;23.30;50.10;;;;;;5009189;28;20115;-64
2022/07/06 02:47:21;;;;;;;1.35;0.35;;;23.30;50.10;;;;;;5009398;28;20366;-61
2022/07/06 02:49:47;;;;;;;1.05;0.50;;;23.30;50.10;;;;;;4988844;28;20053;-62
2022/07/06 02:52:13;;;;;;;1.10;0.60;;;23.30;50.10;;;;;;5012689;28;20084;-61
2022/07/06 02:54:39;;;;;;;1.13;0.50;;;23.30;50.10;;;;;;4991588;28;20037;-63
2022/07/06 02:57:04;;;;;;;1.02;0.63;;;23.30;50.10;;;;;;5009918;28;20034;-62
2022/07/06 02:59:30;;;;;;;0.43;0.28;;;23.30;50.10;;;;;;5010027;28;20046;-62
2022/07/06 03:01:56;;;;;;;2.58;0.70;;;23.30;50.10;;;;;;5009503;28;20379;-61
2022/07/06 03:04:21;;;;;;;2.08;0.70;;;23.30;50.10;;;;;;5011332;28;20078;-64
2022/07/06 03:06:47;;;;;;;0.85;0.57;;;23.30;50.10;;;;;;5011463;28;20049;-62
2022/07/06 03:09:13;;;;;;;3.03;0.70;;;23.20;50.10;;;;;;5012241;28;20037;-62
2022/07/06 03:11:39;;;;;;;1.00;0.50;;;23.30;50.20;;;;;;5006859;28;20117;-61
2022/07/06 03:14:04;;;;;;;0.73;0.60;;;23.20;50.10;;;;;;5007374;28;20041;-61
2022/07/06 03:16:30;;;;;;;1.25;0.63;;;23.30;50.10;;;;;;5009931;28;20553;-62
2022/07/06 03:18:56;;;;;;;0.52;0.47;;;23.20;50.10;;;;;;5006268;28;20092;-64
2022/07/06 03:21:23;;;;;;;0.50;0.40;;;23.30;50.10;;;;;;5010111;28;20754;-62
2022/07/06 03:23:48;;;;;;;0.82;0.40;;;23.30;50.20;;;;;;5010026;28;20540;-62
2022/07/06 03:26:14;;;;;;;0.85;0.50;;;23.20;50.10;;;;;;5007416;28;20045;-62
2022/07/06 03:28:39;;;;;;;1.48;0.50;;;23.20;50.10;;;;;;5008515;28;20100;-62
2022/07/06 03:31:05;;;;;;;0.90;0.65;;;23.20;50.10;;;;;;5010564;28;20616;-62
2022/07/06 03:33:31;;;;;;;1.05;0.50;;;23.20;50.10;;;;;;5007433;28;20045;-63
2022/07/06 03:35:57;;;;;;;1.30;0.50;;;23.20;50.10;;;;;;4990645;28;20045;-64
2022/07/06 03:38:22;;;;;;;1.00;0.50;;;23.20;50.10;;;;;;5009663;28;20056;-63
2022/07/06 03:40:48;;;;;;;1.25;0.60;;;23.20;50.10;;;;;;5010054;28;20065;-64
2022/07/06 03:43:14;;;;;;;1.95;0.60;;;23.20;50.10;;;;;;4989094;28;20486;-61
2022/07/06 03:45:39;;;;;;;1.20;0.60;;;23.20;50.20;;;;;;5011157;28;20049;-64
2022/07/06 03:48:05;;;;;;;1.50;0.70;;;23.20;50.20;;;;;;5006736;28;20042;-61
2022/07/06 03:50:31;;;;;;;1.10;0.57;;;23.20;50.80;;;;;;5009430;28;20762;-62
2022/07/06 03:52:56;;;;;;;1.98;0.63;;;23.20;50.20;;;;;;5010012;28;20899;-62
2022/07/06 03:55:22;;;;;;;1.02;0.50;;;23.20;50.20;;;;;;5007233;28;21765;-62
2022/07/06 03:57:48;;;;;;;1.48;0.60;;;23.20;50.20;;;;;;5009410;28;20033;-62
2022/07/06 04:00:14;;;;;;;1.63;0.60;;;23.20;50.20;;;;;;5009295;28;20045;-62
2022/07/06 04:02:40;;;;;;;0.82;0.55;;;23.20;51.00;;;;;;5007077;28;20033;-63
2022/07/06 04:05:06;;;;;;;1.92;0.55;;;23.20;50.30;;;;;;5003968;28;20107;-61
2022/07/06 04:07:32;;;;;;;1.05;0.40;;;23.20;50.20;;;;;;5007939;28;20509;-62
2022/07/06 04:09:57;;;;;;;0.93;0.50;;;23.20;50.20;;;;;;5007996;28;20125;-62
2022/07/06 04:12:23;;;;;;;1.80;0.60;;;23.20;50.20;;;;;;5011230;28;20506;-62
2022/07/06 04:14:49;;;;;;;1.10;0.40;;;23.20;50.30;;;;;;5006813;28;20034;-60
2022/07/06 04:19:58;;;;;;;2.45;0.70;;;23.20;50.20;;;;;;5010586;28;20412;-61
2022/07/06 04:22:24;;;;;;;1.52;0.50;;;23.20;50.30;;;;;;5009397;28;20045;-63
2022/07/06 04:24:50;;;;;;;1.55;0.80;;;23.20;50.30;;;;;;5010783;28;20488;-63
2022/07/06 04:27:15;;;;;;;1.05;0.40;;;23.20;50.30;;;;;;5008124;28;20045;-62
2022/07/06 04:29:41;;;;;;;1.55;0.60;;;23.20;50.30;;;;;;5006305;28;20053;-62
2022/07/06 04:32:07;;;;;;;1.45;0.50;;;23.20;50.30;;;;;;5007961;28;20110;-64
2022/07/06 04:34:32;;;;;;;0.57;0.30;;;23.10;50.20;;;;;;5002446;28;20050;-63
2022/07/06 04:36:58;;;;;;;0.82;0.50;;;23.20;50.30;;;;;;5006123;28;20124;-62
2022/07/06 04:39:24;;;;;;;1.70;0.40;;;23.20;50.30;;;;;;5026167;28;20044;-65
2022/07/06 04:41:49;;;;;;;1.15;0.45;;;23.20;50.30;;;;;;5004708;28;20072;-61
2022/07/06 04:44:15;;;;;;;0.57;0.50;;;23.20;50.30;;;;;;5008406;28;20060;-61
2022/07/06 04:46:40;;;;;;;2.20;0.43;;;23.20;50.30;;;;;;5007724;28;20137;-64
2022/07/06 04:49:06;;;;;;;0.50;0.50;;;23.20;50.40;;;;;;5007157;28;20053;-62
2022/07/06 04:51:32;;;;;;;1.55;0.50;;;23.10;50.30;;;;;;5007302;28;20096;-62
2022/07/06 04:53:58;;;;;;;0.93;0.50;;;23.10;50.30;;;;;;5006586;28;20092;-64
2022/07/06 04:56:24;;;;;;;1.15;0.60;;;23.10;50.30;;;;;;5008643;28;20042;-62
2022/07/06 04:58:49;;;;;;;1.85;0.60;;;23.10;50.30;;;;;;5007531;28;20025;-62
2022/07/06 05:01:15;;;;;;;1.15;0.50;;;23.20;50.40;;;;;;5012430;28;20041;-62
2022/07/06 05:03:41;;;;;;;0.55;0.40;;;23.10;50.30;;;;;;5008616;28;20640;-63
2022/07/06 05:06:07;;;;;;;3.15;0.50;;;23.10;50.40;;;;;;5010447;28;20038;-62
2022/07/06 05:08:36;;;;;;;0.52;0.40;;;23.20;50.40;;;;;;5013687;28;20041;-63
2022/07/06 05:11:01;;;;;;;0.63;0.40;;;23.10;50.30;;;;;;5011837;28;20044;-61
2022/07/06 05:13:27;;;;;;;1.40;0.50;;;23.10;50.30;;;;;;5012600;28;20058;-62
2022/07/06 05:15:53;;;;;;;1.02;0.40;;;23.10;50.30;;;;;;5014163;28;20037;-62
2022/07/06 05:18:18;;;;;;;0.75;0.40;;;23.10;50.30;;;;;;5008943;28;20044;-62
2022/07/06 05:20:44;;;;;;;1.52;0.63;;;23.10;50.30;;;;;;5012179;28;20038;-61
2022/07/06 05:23:10;;;;;;;0.50;0.30;;;23.10;50.40;;;;;;5010166;28;20057;-61
2022/07/06 05:25:36;;;;;;;2.95;0.60;;;23.10;50.40;;;;;;5007404;28;20041;-62
2022/07/06 05:28:03;;;;;;;0.98;0.68;;;23.10;50.40;;;;;;5011047;28;20211;-61
2022/07/06 05:30:28;;;;;;;1.02;0.40;;;23.10;50.40;;;;;;5012027;28;20056;-61
2022/07/06 05:32:54;;;;;;;0.80;0.40;;;23.10;50.40;;;;;;5014155;28;20046;-61
2022/07/06 05:35:20;;;;;;;1.58;0.40;;;23.10;50.40;;;;;;5012692;28;20953;-62
2022/07/06 05:37:46;;;;;;;1.95;0.45;;;23.10;50.40;;;;;;5012707;28;20098;-61
2022/07/06 05:40:11;;;;;;;1.38;0.35;;;23.10;50.40;;;;;;5009992;28;20825;-63
2022/07/06 05:42:37;;;;;;;1.92;0.50;;;23.10;50.40;;;;;;5011738;28;20090;-63
2022/07/06 05:45:04;;;;;;;1.35;0.70;;;23.10;50.40;;;;;;5011347;28;20034;-62
2022/07/06 05:50:14;;;;;;;1.25;0.40;;;23.10;50.40;;;;;;5011298;28;20655;-62
2022/07/06 05:52:42;;;;;;;1.25;0.50;;;23.10;50.50;;;;;;5014118;28;20047;-63
2022/07/06 05:55:08;;;;;;;1.70;0.73;;;23.10;50.60;;;;;;5010023;28;20592;-63
2022/07/06 05:57:34;;;;;;;1.67;0.40;;;23.10;50.50;;;;;;5006827;28;20069;-61
2022/07/06 05:59:59;;;;;;;1.10;0.55;;;23.20;50.80;;;;;;5009940;28;20520;-61
2022/07/06 06:02:25;;;;;;;0.47;0.30;;;23.20;50.70;;;;;;5011052;28;20052;-60
2022/07/06 06:04:51;;;;;;;1.50;0.40;;;23.10;50.80;;;;;;5008875;28;20045;-62
2022/07/06 06:07:16;;;;;;;0.80;0.30;;;23.20;51.00;;;;;;5012960;28;20489;-62
2022/07/06 06:09:42;;;;;;;1.63;0.40;;;23.20;51.10;;;;;;5010480;28;20056;-61
2022/07/06 06:12:08;;;;;;;1.20;0.40;;;23.20;51.30;;;;;;5026741;28;20152;-62
2022/07/06 06:14:33;;;;;;;1.42;0.50;;;23.20;51.30;;;;;;5011288;28;20038;-61
2022/07/06 06:16:59;;;;;;;1.48;0.30;;;23.20;51.30;;;;;;5012001;28;20046;-62
2022/07/06 06:19:25;;;;;;;2.10;0.52;;;23.20;51.30;;;;;;5011614;28;20496;-61
2022/07/06 06:21:51;;;;;;;0.90;0.50;;;23.30;51.40;;;;;;5007593;28;20042;-63
2022/07/06 06:24:17;;;;;;;1.77;0.45;;;23.30;51.40;;;;;;5010383;28;20041;-62
2022/07/06 06:26:43;;;;;;;1.08;0.50;;;23.30;51.40;;;;;;5009654;28;20037;-61
2022/07/06 06:29:09;;;;;;;1.27;0.52;;;23.30;51.20;;;;;;5008370;28;20724;-64
2022/07/06 06:31:34;;;;;;;2.65;0.50;;;23.30;51.30;;;;;;5009023;28;20413;-62
2022/07/06 06:34:00;;;;;;;0.57;0.30;;;23.30;51.30;;;;;;5011388;28;20037;-62
2022/07/06 06:36:26;;;;;;;1.77;0.50;;;23.30;51.30;;;;;;5003734;28;20378;-62
2022/07/06 06:38:52;;;;;;;3.53;0.50;;;23.30;51.30;;;;;;5009445;28;20481;-61
2022/07/06 06:41:20;;;;;;;0.93;0.40;;;23.30;51.30;;;;;;5006628;28;20041;-61
2022/07/06 06:43:46;;;;;;;1.05;0.50;;;23.30;51.30;;;;;;5009522;28;20048;-63
2022/07/06 06:46:12;;;;;;;2.63;0.60;;;23.30;51.30;;;;;;5005602;28;20506;-61
2022/07/06 06:48:37;;;;;;;2.03;0.80;;;23.30;51.30;;;;;;5011237;28;20510;-61
2022/07/06 06:51:04;;;;;;;2.45;0.50;;;23.30;51.50;;;;;;5006670;28;20081;-61
2022/07/06 06:53:29;;;;;;;4.47;0.60;;;23.30;51.60;;;;;;5008901;28;20556;-62
2022/07/06 06:55:55;;;;;;;3.20;0.55;;;23.30;51.70;;;;;;5008068;28;20128;-61
2022/07/06 06:58:21;;;;;;;5.22;0.68;;;23.30;51.80;;;;;;5009049;28;20069;-63
2022/07/06 07:00:47;;;;;;;1.20;0.50;;;23.30;51.80;;;;;;5007768;28;20064;-61
2022/07/06 07:03:13;;;;;;;4.47;0.75;;;23.30;51.80;;;;;;5007546;28;20045;-62
2022/07/06 07:05:38;;;;;;;2.83;0.50;;;23.30;51.70;;;;;;5007307;28;20045;-62
2022/07/06 07:08:05;;;;;;;4.10;0.60;;;23.30;51.80;;;;;;5009897;28;20041;-63
2022/07/06 07:10:31;;;;;;;4.90;0.73;;;23.30;51.80;;;;;;5011531;28;20068;-62
2022/07/06 07:12:57;;;;;;;2.60;0.50;;;23.30;51.90;;;;;;5007438;28;20037;-62
2022/07/06 07:15:23;;;;;;;4.15;0.75;;;23.30;51.80;;;;;;4987462;28;20053;-61
2022/07/06 07:17:48;;;;;;;2.50;0.57;;;23.30;51.90;;;;;;5007805;28;20038;-64
2022/07/06 07:20:14;;;;;;;3.55;0.60;;;23.30;51.90;;;;;;5009456;28;20491;-62
2022/07/06 07:22:40;;;;;;;1.98;0.57;;;23.30;52.00;;;;;;4994608;28;20814;-65
2022/07/06 07:25:06;;;;;;;3.30;0.77;;;23.30;51.90;;;;;;5006317;28;20120;-62
2022/07/06 07:27:32;;;;;;;3.35;0.85;;;23.30;51.80;;;;;;5008213;28;20041;-61
2022/07/06 07:29:57;;;;;;;1.73;0.60;;;23.30;51.70;;;;;;5009962;28;20041;-63
2022/07/06 07:32:23;;;;;;;1.00;0.43;;;23.30;51.70;;;;;;5008768;28;21022;-62
2022/07/06 07:34:49;;;;;;;1.52;0.60;;;23.30;51.60;;;;;;5008329;28;20052;-61
2022/07/06 07:37:14;;;;;;;1.75;0.60;;;23.30;51.50;;;;;;5009628;28;20048;-61
2022/07/06 07:39:40;;;;;;;2.05;0.47;;;23.30;51.50;;;;;;5007939;28;20441;-62
2022/07/06 07:42:06;;;;;;;3.05;0.85;;;23.30;51.50;;;;;;5006908;28;20030;-63
2022/07/06 07:44:31;;;;;;;4.60;0.70;;;23.30;51.50;;;;;;5009976;28;20042;-61
2022/07/06 07:46:57;;;;;;;4.90;0.80;;;23.30;51.50;;;;;;5006508;28;20049;-61
2022/07/06 07:49:22;;;;;;;3.50;0.50;;;23.30;51.50;;;;;;5006510;28;20399;-62
2022/07/06 07:51:49;;;;;;;1.95;0.68;;;23.30;51.40;;;;;;5006753;28;20026;-61
2022/07/06 07:54:15;;;;;;;5.03;0.80;;;23.30;51.40;;;;;;4989794;28;20076;-61
2022/07/06 07:56:40;;;;;;;7.20;0.70;;;23.30;51.30;;;;;;5001902;28;20117;-62
2022/07/06 07:59:07;;;;;;;0.73;0.32;;;23.30;51.20;;;;;;5004704;28;20083;-64
2022/07/06 08:01:33;;;;;;;2.85;0.50;;;23.30;51.30;;;;;;5002945;28;20056;-63
2022/07/06 08:03:59;;;;;;;2.42;0.47;;;23.30;51.30;;;;;;5004336;28;20132;-62
2022/07/06 08:06:25;;;;;;;1.88;0.50;;;23.30;51.40;;;;;;5000347;28;20156;-62
2022/07/06 08:08:51;;;;;;;4.30;0.75;;;23.30;51.50;;;;;;5006676;28;20040;-61
2022/07/06 08:11:17;;;;;;;2.55;0.70;;;23.30;52.10;;;;;;5004808;28;20072;-61
2022/07/06 08:13:43;;;;;;;2.75;0.57;;;23.30;52.50;;;;;;5009569;28;20474;-61
2022/07/06 08:16:09;;;;;;;1.40;0.57;;;23.30;52.70;;;;;;5003098;28;20091;-63
2022/07/06 08:18:36;;;;;;;2.45;0.68;;;23.30;52.60;;;;;;5004605;28;20049;-62
2022/07/06 08:21:02;;;;;;;2.95;0.68;;;23.30;52.60;;;;;;5005682;28;20038;-63
2022/07/06 08:23:27;;;;;;;3.97;0.70;;;23.30;52.60;;;;;;5004073;28;20084;-62
2022/07/06 08:25:53;;;;;;;3.17;0.70;;;23.30;52.80;;;;;;5003537;28;20052;-62
2022/07/06 08:28:19;;;;;;;1.85;0.60;;;23.30;52.90;;;;;;5002381;28;20049;-63
2022/07/06 08:30:44;;;;;;;4.72;0.85;;;23.30;52.80;;;;;;5005833;28;20083;-63
2022/07/06 08:33:10;;;;;;;4.05;0.80;;;23.30;52.90;;;;;;5003330;28;20046;-62
2022/07/06 08:35:36;;;;;;;2.00;0.60;;;23.30;53.00;;;;;;5004185;28;20496;-62
2022/07/06 08:38:01;;;;;;;4.60;0.98;;;23.30;52.80;;;;;;5010923;28;20055;-61
2022/07/06 08:40:34;;;;;;;5.38;0.77;;;23.30;52.80;;;;;;5007842;28;20048;-61
2022/07/06 08:43:00;;;;;;;4.07;0.63;;;23.40;52.80;;;;;;5008932;28;20042;-64
2022/07/06 08:45:27;;;;;;;4.63;0.90;;;23.40;52.80;;;;;;5007320;28;20053;-62
2022/07/06 08:47:54;;;;;;;2.63;0.65;;;23.40;52.80;;;;;;5007772;28;20504;-61
2022/07/06 08:50:21;;;;;;;3.80;0.45;;;23.40;52.80;;;;;;5009599;28;20180;-62
2022/07/06 08:52:50;;;;;;;3.22;0.60;;;23.40;53.00;;;;;;5011655;28;20049;-62
2022/07/06 08:55:17;;;;;;;3.50;0.75;;;23.40;52.90;;;;;;5010549;28;20488;-62
2022/07/06 08:57:46;;;;;;;3.47;0.80;;;23.40;52.70;;;;;;5010193;28;20658;-61
2022/07/06 09:00:12;;;;;;;3.80;0.65;;;23.40;52.60;;;;;;5009299;28;20060;-62
2022/07/06 09:02:40;;;;;;;7.00;0.73;;;23.40;52.60;;;;;;5011447;28;20065;-61
2022/07/06 09:05:08;;;;;;;3.42;0.57;;;23.40;52.50;;;;;;5012650;28;20044;-62
2022/07/06 09:07:34;;;;;;;2.15;0.52;;;23.40;52.40;;;;;;5009595;28;20049;-64
2022/07/06 09:10:00;;;;;;;2.60;0.57;;;23.40;52.40;;;;;;5009939;28;20056;-61
2022/07/06 09:12:27;;;;;;;2.78;0.47;;;23.40;52.40;;;;;;5005455;28;20071;-61
2022/07/06 09:14:56;;;;;;;3.63;0.43;;;23.40;52.30;;;;;;5011412;28;20056;-61
2022/07/06 09:17:26;;;;;;;3.20;0.60;;;23.40;52.30;;;;;;5009896;28;20073;-62
2022/07/06 09:19:52;;;;;;;1.30;0.32;;;23.40;52.30;;;;;;5013091;28;20033;-61
2022/07/06 09:22:31;;;;;;;4.63;0.50;;;23.40;52.30;;;;;;5009610;28;20041;-61
2022/07/06 09:25:08;;;;;;;2.30;0.77;;;23.40;52.20;;;;;;5011520;28;20391;-61
2022/07/06 09:27:42;;;;;;;2.70;0.30;;;23.40;52.40;;;;;;5008743;28;20073;-61
2022/07/06 09:30:10;;;;;;;2.55;0.73;;;23.40;52.30;;;;;;5009213;28;20041;-64
2022/07/06 09:32:44;;;;;;;3.30;0.60;;;23.40;52.30;;;;;;5010109;28;20037;-62
2022/07/06 09:35:27;;;;;;;1.60;0.70;;;23.40;52.10;;;;;;5009296;28;20096;-60
2022/07/06 09:38:08;;;;;;;1.38;0.45;;;23.40;52.10;;;;;;5007352;28;20033;-63
2022/07/06 09:40:36;;;;;;;0.93;0.40;;;23.40;52.10;;;;;;5009510;28;20523;-64
2022/07/06 09:43:14;;;;;;;3.05;0.65;;;23.40;52.10;;;;;;5010176;28;20033;-61
2022/07/06 09:45:45;;;;;;;2.25;0.57;;;23.40;52.10;;;;;;5008601;28;20061;-64
2022/07/06 09:48:18;;;;;;;3.00;0.60;;;23.40;52.10;;;;;;5009513;28;20045;-63
2022/07/06 09:50:53;;;;;;;2.30;0.70;;;23.40;51.90;;;;;;5011241;28;20091;-63
2022/07/06 09:53:26;;;;;;;16.30;4.53;;;23.40;51.90;;;;;;5008197;28;20127;-62
2022/07/06 09:55:54;;;;;;;19.15;6.13;;;23.40;52.00;;;;;;5024678;28;20038;-64
2022/07/06 09:58:21;;;;;;;22.98;7.45;;;23.40;52.60;;;;;;5007224;28;20065;-62
2022/07/06 10:00:48;;;;;;;31.83;8.88;;;23.40;53.10;;;;;;5008990;28;20041;-62
2022/07/06 10:03:15;;;;;;;24.98;7.32;;;23.40;53.50;;;;;;5007209;28;20425;-65
2022/07/06 10:05:43;;;;;;;22.00;7.05;;;23.40;53.30;;;;;;5003040;28;20124;-64
2022/07/06 10:08:10;;;;;;;20.90;6.78;;;23.40;52.90;;;;;;4999061;28;20132;-64
2022/07/06 10:10:37;;;;;;;16.98;4.90;;;23.40;52.90;;;;;;5010895;28;20272;-64
2022/07/06 10:13:06;;;;;;;22.15;5.78;;;23.40;52.90;;;;;;5009645;28;20042;-63
2022/07/06 10:15:32;;;;;;;16.13;5.20;;;23.40;52.70;;;;;;5010848;28;20073;-63
2022/07/06 10:18:03;;;;;;;14.63;4.78;;;23.50;52.70;;;;;;5007627;28;20498;-64
2022/07/06 10:20:31;;;;;;;13.20;5.25;;;23.40;53.00;;;;;;5010754;28;20068;-63
2022/07/06 10:22:59;;;;;;;17.77;5.20;;;23.40;52.90;;;;;;5010899;28;20047;-63
2022/07/06 10:25:26;;;;;;;13.27;4.72;;;23.40;52.60;;;;;;5008174;28;20088;-64
2022/07/06 10:27:52;;;;;;;12.40;4.13;;;23.40;52.50;;;;;;5010713;28;20077;-63
2022/07/06 10:30:19;;;;;;;15.10;4.60;;;23.40;52.30;;;;;;5011411;28;20034;-65
2022/07/06 10:32:48;;;;;;;13.85;3.85;;;23.50;52.40;;;;;;5006383;28;20111;-65
2022/07/06 10:35:14;;;;;;;18.90;5.50;;;23.50;52.20;;;;;;5009106;28;20025;-63
2022/07/06 10:37:40;;;;;;;16.65;4.97;;;23.50;52.50;;;;;;5007811;28;20042;-64
2022/07/06 10:43:01;;;;;;;10.88;4.40;;;23.50;53.20;;;;;;5006504;28;20050;-63
2022/07/06 10:45:30;;;;;;;12.57;5.18;;;23.50;53.00;;;;;;4989965;28;20065;-64
2022/07/06 10:48:12;;;;;;;11.95;3.70;;;23.50;52.90;;;;;;5004965;28;20112;-63
2022/07/06 10:51:01;;;;;;;11.13;4.10;;;23.50;52.90;;;;;;4994361;28;20041;-63
2022/07/06 10:53:30;;;;;;;12.15;3.97;;;23.50;52.90;;;;;;5007503;28;20041;-63
2022/07/06 10:55:57;;;;;;;11.52;4.20;;;23.50;53.00;;;;;;5004116;28;20041;-64
2022/07/06 10:58:47;;;;;;;11.30;4.35;;;23.50;52.90;;;;;;5004935;28;20034;-63
2022/07/06 11:01:13;;;;;;;8.77;3.63;;;23.50;53.00;;;;;;5008593;28;20096;-63
2022/07/06 11:03:44;;;;;;;10.88;4.05;;;23.50;53.10;;;;;;5005898;28;20041;-63
2022/07/06 11:06:13;;;;;;;10.02;3.65;;;23.50;53.30;;;;;;5005316;28;20090;-64
2022/07/06 11:08:58;;;;;;;13.13;3.85;;;23.50;53.40;;;;;;5009510;28;20081;-65
2022/07/06 11:11:35;;;;;;;9.88;3.70;;;23.50;53.50;;;;;;5007636;28;20595;-64
2022/07/06 11:14:13;;;;;;;11.18;4.07;;;23.50;53.50;;;;;;5007861;28;20041;-63
2022/07/06 11:16:48;;;;;;;8.50;3.30;;;23.50;53.60;;;;;;5006569;28;20038;-65
2022/07/06 11:19:25;;;;;;;9.77;3.35;;;23.50;53.50;;;;;;5005519;28;20155;-63
2022/07/06 11:21:57;;;;;;;9.95;3.00;;;23.50;53.50;;;;;;5006713;28;21033;-65
2022/07/06 11:24:28;;;;;;;10.88;2.72;;;23.50;53.50;;;;;;5011179;28;20039;-64
2022/07/06 11:26:55;;;;;;;9.30;3.03;;;23.50;53.50;;;;;;5010168;28;20628;-63
2022/07/06 11:29:22;;;;;;;11.18;3.17;;;23.50;53.50;;;;;;5006646;28;20040;-63
2022/07/06 11:31:52;;;;;;;13.77;3.30;;;23.50;53.50;;;;;;5009148;28;20475;-64
2022/07/06 11:34:23;;;;;;;13.27;3.22;;;23.50;53.50;;;;;;5008306;28;20099;-62
2022/07/06 11:36:54;;;;;;;11.93;3.25;;;23.50;53.40;;;;;;5009269;28;20100;-63
2022/07/06 11:39:19;;;;;;;13.13;3.33;;;23.50;53.40;;;;;;5005192;28;20131;-65
2022/07/06 11:41:45;;;;;;;20.73;2.85;;;23.50;53.30;;;;;;5006652;28;20124;-64
2022/07/06 11:44:11;;;;;;;7.90;2.42;;;23.50;53.10;;;;;;5007419;28;20050;-63
2022/07/06 11:46:37;;;;;;;7.95;2.75;;;23.50;53.00;;;;;;5009576;28;20065;-64
2022/07/06 11:49:07;;;;;;;12.05;2.88;;;23.50;53.00;;;;;;5009877;28;20056;-63
2022/07/06 11:51:34;;;;;;;;;;;23.50;53.00;;;;;;5011814;28;20646;-62
2022/07/06 11:54:07;;;;;;;12.75;2.90;;;23.50;53.00;;;;;;5011142;28;20384;-62
2022/07/06 11:56:34;;;;;;;10.70;2.42;;;23.40;53.00;;;;;;5009149;28;20050;-64
2022/07/06 11:59:00;;;;;;;6.95;2.10;;;23.40;53.00;;;;;;5010126;28;20037;-65
2022/07/06 12:01:33;;;;;;;8.45;2.63;;;23.40;53.00;;;;;;5010746;28;20041;-62
2022/07/06 12:04:00;;;;;;;7.78;2.35;;;23.40;52.90;;;;;;5007541;28;20088;-62
2022/07/06 12:06:27;;;;;;;9.18;2.47;;;23.40;52.80;;;;;;5007481;28;20104;-62
2022/07/06 12:08:57;;;;;;;5.80;2.22;;;23.50;52.80;;;;;;5008148;28;20077;-62
2022/07/06 12:11:28;;;;;;;8.00;2.50;;;23.40;52.80;;;;;;5010867;28;20041;-62
2022/07/06 12:13:55;;;;;;;;;;;23.40;52.80;;;;;;5011211;28;20494;-63
2022/07/06 12:16:23;;;;;;;9.55;2.38;;;23.40;52.60;;;;;;5009566;28;20021;-62
2022/07/06 12:18:50;;;;;;;7.25;2.40;;;23.40;52.70;;;;;;5007371;28;20112;-61
2022/07/06 12:21:18;;;;;;;7.20;1.90;;;23.40;52.70;;;;;;5009752;28;20589;-63
2022/07/06 12:23:49;;;;;;;8.02;2.03;;;23.40;52.60;;;;;;5008991;28;20034;-61
2022/07/06 12:26:17;;;;;;;5.22;1.60;;;23.40;53.20;;;;;;5010275;28;20107;-63
2022/07/06 12:28:44;;;;;;;8.60;2.47;;;23.40;52.40;;;;;;5006552;28;20686;-63
2022/07/06 12:31:10;;;;;;;4.68;1.73;;;23.40;52.40;;;;;;5005203;28;20138;-62
2022/07/06 12:33:37;;;;;;;3.70;1.88;;;23.40;52.30;;;;;;5003744;28;20934;-62
2022/07/06 12:36:13;;;;;;;5.68;1.73;;;23.40;52.20;;;;;;5002281;28;20127;-63
2022/07/06 12:38:47;;;;;;;4.53;1.90;;;23.40;52.20;;;;;;5007003;28;20042;-63
2022/07/06 12:41:33;;;;;;;5.15;1.88;;;23.40;52.20;;;;;;5006347;28;20217;-63
2022/07/06 12:44:03;;;;;;;6.30;1.80;;;23.40;52.30;;;;;;5007083;28;20121;-64
2022/07/06 12:46:34;;;;;;;4.82;1.30;;;23.40;52.30;;;;;;5006177;28;20112;-62
2022/07/06 12:49:03;;;;;;;7.15;1.60;;;23.40;52.10;;;;;;5005762;28;20049;-62
2022/07/06 12:51:29;;;;;;;8.48;1.52;;;23.40;52.10;;;;;;5007836;28;20454;-62
2022/07/06 12:54:14;;;;;;;4.32;1.45;;;23.40;52.10;;;;;;5008859;28;20046;-64